Weather at Megisti Lavra Heliport

Public forecast

Using degrees Celsius for public forecast. Weather courtesy of forecast.io.

Closest aviation weather report (METAR) to Megisti Lavra Heliport

Closest report is Limnos Airport, 42.2 nm (78.1 km) ESE.

2024/07/13 21:50 (retrieved 49 minutes ago)

LGLM 132150Z 36004KT CAVOK 27/18 Q1009

Closest aviation forecast (TAF) to Megisti Lavra Heliport

Closest forecast is Kavala Alexander the Great International Airport, 45.8 nm (84.9 km) NNE.

2024/07/13 18:12 (retrieved 4 hours ago)

TAF LGKV 131700Z 1318/1418 VRB03KT CAVOK BECMG 1410/1412 22013KT